Sunday, December 16, 2018, 3:09 PM GMT
Back to Local

CWNE, North Point, Prince Edward Island

Location: , , Canada Lat: 47.083
Local Time: 3:09 PM GMT (15:09 GMT) Lon: -64
Time Zone: GMT Elev: 49 ft

Show me the last for .
Show Coded

Time T Td Feel RH Dir Speed Gust Alt SLP Vis Weather Sky Remarks
2018-12-16 14:00 32 28 25 85 290° 8 - - 30.23 0 None
2018-12-16 13:00 32 28 23 85 300° 10 - - 30.23 0 None
2018-12-16 12:00 31 27 24 86 270° 7 - - 30.21 0 None
2018-12-16 11:00 31 29 23 93 250° 8 - - 30.21 0 None
2018-12-16 10:00 32 27 22 83 270° 13 - - 30.18 0 None
2018-12-16 09:00 31 27 22 81 300° 13 - - 30.18 0 Peak wind: 21 mph (19 kts) from 320° at 04 min
2018-12-16 08:00 33 26 22 74 320° 20 - - 30.16 0 Peak wind: 26 mph (23 kts) from 310° at 34 min
2018-12-16 07:00 31 27 19 83 290° 20 - - 30.16 0 Peak wind: 25 mph (22 kts) from 290° at 10 min
2018-12-16 06:00 31 27 19 83 280° 21 - - 30.15 0 Peak wind: 26 mph (23 kts) from 280° at 46 min
2018-12-16 05:00 33 27 21 78 280° 21 - - 30.13 0 Peak wind: 25 mph (22 kts) from 280° at 16 min
2018-12-16 04:00 33 29 21 86 290° 22 - - 30.11 0 Peak wind: 26 mph (23 kts) from 290° at 48 min
2018-12-16 03:00 33 28 21 79 280° 24 - - 30.10 0 Peak wind: 28 mph (25 kts) from 280° at 35 min
2018-12-16 02:00 34 28 22 80 280° 22 - - 30.09 0 Peak wind: 26 mph (23 kts) from 280° at 48 min
2018-12-16 01:00 34 29 22 79 280° 23 - - 30.07 0 Peak wind: 26 mph (23 kts) from 280° at 54 min
2018-12-16 00:00 34 29 23 82 270° 18 - - 30.06 0 Peak wind: 24 mph (21 kts) from 270° at 00 min
2018-12-15 23:00 34 29 23 79 270° 22 - - 30.05 0 Peak wind: 25 mph (22 kts) from 280° at 58 min
2018-12-15 22:00 33 29 23 83 270° 17 - - 30.03 0 Peak wind: 19 mph (17 kts) from 270° at 59 min
2018-12-15 21:00 34 28 24 80 270° 16 - - 30.02 0 Peak wind: 21 mph (19 kts) from 270° at 47 min
2018-12-15 20:00 34 29 23 82 290° 16 - - 29.98 0 Peak wind: 20 mph (18 kts) from 300° at 03 min
2018-12-15 19:00 35 29 24 79 300° 20 - - 29.94 0 Peak wind: 26 mph (23 kts) from 290° at 07 min
2018-12-15 18:00 33 30 20 88 270° 16 24 - 29.91 0 Peak wind: 24 mph (21 kts) from 270° at 50 min
2018-12-15 17:00 35 31 23 87 280° 20 - - 29.91 0 Peak wind: 23 mph (20 kts) from 280° at 44 min
2018-12-15 16:00 34 32 22 92 250° 20 - - 29.92 0 Peak wind: 20 mph (18 kts) from 250° at 50 min

Support USWX by starting your Amazon purchase here.